Terminal Aerodrome Forecast
Issued by NWS Hastings, NE

Home | Current Version | Previous Version | Text Only | Print | Product List | Glossary On
Versions: 1 2 3 4 5 6 7 8 9 10 11 12 13 14 15
000
FTUS43 KGID 302325
TAFGRI
TAF
KGRI 302325Z 3100/3124 16009KT P6SM SCT040
     FM310200 13010KT P6SM VCTS SCT080CB
     FM311000 12008KT 4SM BR BKN015
     FM311500 12011KT P6SM BKN020
     FM311600 12011KT P6SM SCT025
     FM311800 13011KT P6SM SCT130=

USA.gov is the U.S. government's official web portal to all federal, state and local government web resources and services.